sensor_id;sensor_type;location;lat;lon;timestamp;P1;durP1;ratioP1;P2;durP2;ratioP2
8574;SDS011;4325;42.520;27.448;2023-04-15T00:01:13;14.57;;;5.43;;
8574;SDS011;4325;42.520;27.448;2023-04-15T00:03:43;16.33;;;4.63;;
8574;SDS011;4325;42.520;27.448;2023-04-15T00:06:10;22.87;;;5.37;;
8574;SDS011;4325;42.520;27.448;2023-04-15T00:08:37;26.20;;;5.83;;
8574;SDS011;4325;42.520;27.448;2023-04-15T00:11:04;16.33;;;5.77;;
8574;SDS011;4325;42.520;27.448;2023-04-15T00:13:32;15.20;;;5.57;;
8574;SDS011;4325;42.520;27.448;2023-04-15T00:15:59;16.67;;;5.80;;
8574;SDS011;4325;42.520;27.448;2023-04-15T00:18:26;16.47;;;5.30;;
8574;SDS011;4325;42.520;27.448;2023-04-15T00:20:53;17.63;;;6.37;;
8574;SDS011;4325;42.520;27.448;2023-04-15T00:23:20;13.43;;;5.97;;
8574;SDS011;4325;42.520;27.448;2023-04-15T00:25:47;20.27;;;5.87;;
8574;SDS011;4325;42.520;27.448;2023-04-15T00:28:15;12.90;;;5.13;;
8574;SDS011;4325;42.520;27.448;2023-04-15T00:30:44;17.90;;;5.83;;
8574;SDS011;4325;42.520;27.448;2023-04-15T00:33:11;19.57;;;6.07;;
8574;SDS011;4325;42.520;27.448;2023-04-15T00:35:38;10.90;;;4.77;;
8574;SDS011;4325;42.520;27.448;2023-04-15T00:38:06;16.47;;;5.60;;
8574;SDS011;4325;42.520;27.448;2023-04-15T00:40:33;14.93;;;6.07;;
8574;SDS011;4325;42.520;27.448;2023-04-15T00:43:00;12.97;;;5.27;;
8574;SDS011;4325;42.520;27.448;2023-04-15T00:45:28;14.33;;;5.37;;
8574;SDS011;4325;42.520;27.448;2023-04-15T00:47:56;17.07;;;6.07;;
8574;SDS011;4325;42.520;27.448;2023-04-15T00:50:24;19.37;;;7.13;;
8574;SDS011;4325;42.520;27.448;2023-04-15T00:52:51;18.77;;;6.20;;
8574;SDS011;4325;42.520;27.448;2023-04-15T00:55:18;15.40;;;7.10;;
8574;SDS011;4325;42.520;27.448;2023-04-15T00:57:45;20.77;;;7.93;;
8574;SDS011;4325;42.520;27.448;2023-04-15T01:00:12;18.43;;;7.03;;
8574;SDS011;4325;42.520;27.448;2023-04-15T01:02:40;16.47;;;6.93;;
8574;SDS011;4325;42.520;27.448;2023-04-15T01:05:08;20.83;;;6.63;;
8574;SDS011;4325;42.520;27.448;2023-04-15T01:07:35;13.43;;;5.40;;
8574;SDS011;4325;42.520;27.448;2023-04-15T01:10:02;14.53;;;5.97;;
8574;SDS011;4325;42.520;27.448;2023-04-15T01:12:30;23.47;;;6.77;;
8574;SDS011;4325;42.520;27.448;2023-04-15T01:14:58;18.63;;;6.37;;
8574;SDS011;4325;42.520;27.448;2023-04-15T01:17:25;18.07;;;5.47;;
8574;SDS011;4325;42.520;27.448;2023-04-15T01:19:53;16.77;;;5.90;;
8574;SDS011;4325;42.520;27.448;2023-04-15T01:22:23;20.77;;;6.20;;
8574;SDS011;4325;42.520;27.448;2023-04-15T01:24:58;13.23;;;5.63;;
8574;SDS011;4325;42.520;27.448;2023-04-15T01:27:33;14.50;;;5.07;;
8574;SDS011;4325;42.520;27.448;2023-04-15T01:30:01;12.63;;;5.60;;
8574;SDS011;4325;42.520;27.448;2023-04-15T01:32:29;14.87;;;6.07;;
8574;SDS011;4325;42.520;27.448;2023-04-15T01:34:56;15.20;;;6.03;;
8574;SDS011;4325;42.520;27.448;2023-04-15T01:37:23;12.73;;;5.90;;
8574;SDS011;4325;42.520;27.448;2023-04-15T01:39:50;17.80;;;6.20;;
8574;SDS011;4325;42.520;27.448;2023-04-15T01:42:17;28.53;;;6.20;;
8574;SDS011;4325;42.520;27.448;2023-04-15T01:44:45;22.27;;;6.47;;
8574;SDS011;4325;42.520;27.448;2023-04-15T01:47:12;18.43;;;5.47;;
8574;SDS011;4325;42.520;27.448;2023-04-15T01:49:38;18.50;;;5.60;;
8574;SDS011;4325;42.520;27.448;2023-04-15T01:52:05;18.50;;;5.83;;
8574;SDS011;4325;42.520;27.448;2023-04-15T01:54:33;13.33;;;6.17;;
8574;SDS011;4325;42.520;27.448;2023-04-15T01:57:00;18.53;;;6.07;;
8574;SDS011;4325;42.520;27.448;2023-04-15T01:59:27;13.10;;;5.67;;
8574;SDS011;4325;42.520;27.448;2023-04-15T02:01:56;16.13;;;5.80;;
8574;SDS011;4325;42.520;27.448;2023-04-15T02:04:24;16.40;;;6.30;;
8574;SDS011;4325;42.520;27.448;2023-04-15T02:06:50;19.40;;;6.03;;
8574;SDS011;4325;42.520;27.448;2023-04-15T02:09:17;12.63;;;5.57;;
8574;SDS011;4325;42.520;27.448;2023-04-15T02:11:44;23.50;;;7.13;;
8574;SDS011;4325;42.520;27.448;2023-04-15T02:14:11;17.03;;;5.73;;
8574;SDS011;4325;42.520;27.448;2023-04-15T02:16:38;19.87;;;6.13;;
8574;SDS011;4325;42.520;27.448;2023-04-15T02:19:08;16.20;;;5.77;;
8574;SDS011;4325;42.520;27.448;2023-04-15T02:21:34;14.63;;;6.33;;
8574;SDS011;4325;42.520;27.448;2023-04-15T02:24:01;18.73;;;6.73;;
8574;SDS011;4325;42.520;27.448;2023-04-15T02:26:28;17.90;;;6.90;;
8574;SDS011;4325;42.520;27.448;2023-04-15T02:28:56;16.93;;;5.57;;
8574;SDS011;4325;42.520;27.448;2023-04-15T02:31:23;14.43;;;5.70;;
8574;SDS011;4325;42.520;27.448;2023-04-15T02:33:50;13.13;;;6.37;;
8574;SDS011;4325;42.520;27.448;2023-04-15T02:36:19;16.57;;;6.37;;
8574;SDS011;4325;42.520;27.448;2023-04-15T02:38:46;12.03;;;5.77;;
8574;SDS011;4325;42.520;27.448;2023-04-15T02:41:12;16.03;;;5.83;;
8574;SDS011;4325;42.520;27.448;2023-04-15T02:43:39;17.13;;;6.07;;
8574;SDS011;4325;42.520;27.448;2023-04-15T02:46:06;22.30;;;8.07;;
8574;SDS011;4325;42.520;27.448;2023-04-15T02:48:33;17.27;;;7.53;;
8574;SDS011;4325;42.520;27.448;2023-04-15T02:51:12;27.33;;;13.33;;
8574;SDS011;4325;42.520;27.448;2023-04-15T02:53:41;19.50;;;7.53;;
8574;SDS011;4325;42.520;27.448;2023-04-15T02:56:08;18.50;;;6.87;;
8574;SDS011;4325;42.520;27.448;2023-04-15T02:58:35;19.17;;;6.93;;
8574;SDS011;4325;42.520;27.448;2023-04-15T03:01:02;23.53;;;9.97;;
8574;SDS011;4325;42.520;27.448;2023-04-15T03:03:29;17.80;;;6.80;;
8574;SDS011;4325;42.520;27.448;2023-04-15T03:05:56;23.27;;;8.97;;
8574;SDS011;4325;42.520;27.448;2023-04-15T03:08:23;13.07;;;8.23;;
8574;SDS011;4325;42.520;27.448;2023-04-15T03:10:51;16.30;;;7.73;;
8574;SDS011;4325;42.520;27.448;2023-04-15T03:13:18;20.17;;;7.67;;
8574;SDS011;4325;42.520;27.448;2023-04-15T03:15:45;13.97;;;8.07;;
8574;SDS011;4325;42.520;27.448;2023-04-15T03:18:12;19.77;;;8.73;;
8574;SDS011;4325;42.520;27.448;2023-04-15T03:20:39;21.37;;;7.30;;
8574;SDS011;4325;42.520;27.448;2023-04-15T03:23:06;22.23;;;7.83;;
8574;SDS011;4325;42.520;27.448;2023-04-15T03:25:33;18.07;;;8.17;;
8574;SDS011;4325;42.520;27.448;2023-04-15T03:28:02;19.53;;;8.27;;
8574;SDS011;4325;42.520;27.448;2023-04-15T03:30:29;15.87;;;8.07;;
8574;SDS011;4325;42.520;27.448;2023-04-15T03:32:56;28.27;;;11.10;;
8574;SDS011;4325;42.520;27.448;2023-04-15T03:35:23;24.03;;;9.47;;
8574;SDS011;4325;42.520;27.448;2023-04-15T03:37:50;23.57;;;12.23;;
8574;SDS011;4325;42.520;27.448;2023-04-15T03:40:17;20.80;;;12.10;;
8574;SDS011;4325;42.520;27.448;2023-04-15T03:42:44;27.80;;;11.43;;
8574;SDS011;4325;42.520;27.448;2023-04-15T03:45:12;25.23;;;14.10;;
8574;SDS011;4325;42.520;27.448;2023-04-15T03:47:39;21.87;;;10.17;;
8574;SDS011;4325;42.520;27.448;2023-04-15T03:50:06;24.40;;;9.10;;
8574;SDS011;4325;42.520;27.448;2023-04-15T03:52:33;26.23;;;9.23;;
8574;SDS011;4325;42.520;27.448;2023-04-15T03:55:00;19.63;;;8.60;;
8574;SDS011;4325;42.520;27.448;2023-04-15T03:57:27;28.07;;;10.70;;
8574;SDS011;4325;42.520;27.448;2023-04-15T03:59:54;30.03;;;10.57;;
8574;SDS011;4325;42.520;27.448;2023-04-15T04:02:22;19.10;;;9.63;;
8574;SDS011;4325;42.520;27.448;2023-04-15T04:04:49;16.13;;;9.40;;
8574;SDS011;4325;42.520;27.448;2023-04-15T04:07:16;23.70;;;7.10;;
8574;SDS011;4325;42.520;27.448;2023-04-15T04:09:43;46.37;;;25.13;;
8574;SDS011;4325;42.520;27.448;2023-04-15T04:12:10;41.33;;;27.40;;
8574;SDS011;4325;42.520;27.448;2023-04-15T04:14:37;41.67;;;25.53;;
8574;SDS011;4325;42.520;27.448;2023-04-15T04:17:04;37.50;;;24.73;;
8574;SDS011;4325;42.520;27.448;2023-04-15T04:19:32;32.73;;;20.33;;
8574;SDS011;4325;42.520;27.448;2023-04-15T04:21:59;28.23;;;16.83;;
8574;SDS011;4325;42.520;27.448;2023-04-15T04:24:26;29.00;;;12.17;;
8574;SDS011;4325;42.520;27.448;2023-04-15T04:26:53;33.10;;;17.07;;
8574;SDS011;4325;42.520;27.448;2023-04-15T04:29:20;25.70;;;11.73;;
8574;SDS011;4325;42.520;27.448;2023-04-15T04:31:47;22.93;;;8.80;;
8574;SDS011;4325;42.520;27.448;2023-04-15T04:34:14;20.57;;;8.70;;
8574;SDS011;4325;42.520;27.448;2023-04-15T04:36:42;22.80;;;8.57;;
8574;SDS011;4325;42.520;27.448;2023-04-15T04:39:09;24.30;;;9.93;;
8574;SDS011;4325;42.520;27.448;2023-04-15T04:41:36;24.23;;;8.50;;
8574;SDS011;4325;42.520;27.448;2023-04-15T04:44:03;26.07;;;8.53;;
8574;SDS011;4325;42.520;27.448;2023-04-15T04:46:29;22.77;;;13.30;;
8574;SDS011;4325;42.520;27.448;2023-04-15T04:48:56;22.77;;;8.20;;
8574;SDS011;4325;42.520;27.448;2023-04-15T04:51:23;25.10;;;7.40;;
8574;SDS011;4325;42.520;27.448;2023-04-15T04:53:51;19.23;;;7.67;;
8574;SDS011;4325;42.520;27.448;2023-04-15T04:56:19;17.30;;;7.33;;
8574;SDS011;4325;42.520;27.448;2023-04-15T04:58:45;21.83;;;7.47;;
8574;SDS011;4325;42.520;27.448;2023-04-15T05:01:12;13.97;;;6.83;;
8574;SDS011;4325;42.520;27.448;2023-04-15T05:03:39;19.73;;;7.43;;
8574;SDS011;4325;42.520;27.448;2023-04-15T05:06:06;14.33;;;6.80;;
8574;SDS011;4325;42.520;27.448;2023-04-15T05:08:33;18.40;;;7.60;;
8574;SDS011;4325;42.520;27.448;2023-04-15T05:11:01;17.77;;;8.13;;
8574;SDS011;4325;42.520;27.448;2023-04-15T05:13:28;27.07;;;11.53;;
8574;SDS011;4325;42.520;27.448;2023-04-15T05:15:55;21.57;;;10.67;;
8574;SDS011;4325;42.520;27.448;2023-04-15T05:18:22;25.17;;;11.23;;
8574;SDS011;4325;42.520;27.448;2023-04-15T05:20:49;17.93;;;8.30;;
8574;SDS011;4325;42.520;27.448;2023-04-15T05:23:16;15.77;;;8.10;;
8574;SDS011;4325;42.520;27.448;2023-04-15T05:25:43;12.50;;;6.80;;
8574;SDS011;4325;42.520;27.448;2023-04-15T05:28:11;17.97;;;7.47;;
8574;SDS011;4325;42.520;27.448;2023-04-15T05:30:38;14.23;;;7.07;;
8574;SDS011;4325;42.520;27.448;2023-04-15T05:33:05;21.10;;;6.57;;
8574;SDS011;4325;42.520;27.448;2023-04-15T05:35:32;11.63;;;6.40;;
8574;SDS011;4325;42.520;27.448;2023-04-15T05:37:59;14.03;;;5.40;;
8574;SDS011;4325;42.520;27.448;2023-04-15T05:40:26;8.30;;;4.37;;
8574;SDS011;4325;42.520;27.448;2023-04-15T05:42:53;11.10;;;4.03;;
8574;SDS011;4325;42.520;27.448;2023-04-15T05:45:22;11.07;;;4.63;;
8574;SDS011;4325;42.520;27.448;2023-04-15T05:47:48;6.73;;;4.20;;
8574;SDS011;4325;42.520;27.448;2023-04-15T05:50:18;8.17;;;4.67;;
8574;SDS011;4325;42.520;27.448;2023-04-15T05:52:45;9.13;;;3.83;;
8574;SDS011;4325;42.520;27.448;2023-04-15T05:55:12;9.27;;;3.97;;
8574;SDS011;4325;42.520;27.448;2023-04-15T05:57:39;7.30;;;3.97;;
8574;SDS011;4325;42.520;27.448;2023-04-15T06:00:06;7.30;;;3.70;;
8574;SDS011;4325;42.520;27.448;2023-04-15T06:02:35;6.47;;;3.50;;
8574;SDS011;4325;42.520;27.448;2023-04-15T06:05:03;7.30;;;3.97;;
8574;SDS011;4325;42.520;27.448;2023-04-15T06:07:33;6.77;;;3.63;;
8574;SDS011;4325;42.520;27.448;2023-04-15T06:10:01;7.90;;;4.43;;
8574;SDS011;4325;42.520;27.448;2023-04-15T06:12:28;6.60;;;3.67;;
8574;SDS011;4325;42.520;27.448;2023-04-15T06:14:55;5.60;;;3.63;;
8574;SDS011;4325;42.520;27.448;2023-04-15T06:17:22;5.23;;;2.90;;
8574;SDS011;4325;42.520;27.448;2023-04-15T06:19:51;10.43;;;3.33;;
8574;SDS011;4325;42.520;27.448;2023-04-15T06:22:19;5.87;;;2.80;;
8574;SDS011;4325;42.520;27.448;2023-04-15T06:24:46;8.10;;;3.07;;
8574;SDS011;4325;42.520;27.448;2023-04-15T06:27:13;8.60;;;3.23;;
8574;SDS011;4325;42.520;27.448;2023-04-15T06:29:40;6.37;;;3.00;;
8574;SDS011;4325;42.520;27.448;2023-04-15T06:32:07;6.43;;;2.80;;
8574;SDS011;4325;42.520;27.448;2023-04-15T06:34:34;5.00;;;3.23;;
8574;SDS011;4325;42.520;27.448;2023-04-15T06:37:02;6.17;;;3.57;;
8574;SDS011;4325;42.520;27.448;2023-04-15T06:39:29;7.60;;;4.47;;
8574;SDS011;4325;42.520;27.448;2023-04-15T06:41:56;5.93;;;2.27;;
8574;SDS011;4325;42.520;27.448;2023-04-15T06:44:23;5.43;;;2.40;;
8574;SDS011;4325;42.520;27.448;2023-04-15T06:46:50;4.70;;;2.63;;
8574;SDS011;4325;42.520;27.448;2023-04-15T06:49:16;7.40;;;3.77;;
8574;SDS011;4325;42.520;27.448;2023-04-15T06:51:43;14.20;;;8.10;;
8574;SDS011;4325;42.520;27.448;2023-04-15T06:54:11;13.80;;;5.80;;
8574;SDS011;4325;42.520;27.448;2023-04-15T06:56:38;9.33;;;4.90;;
8574;SDS011;4325;42.520;27.448;2023-04-15T06:59:06;16.13;;;7.20;;
8574;SDS011;4325;42.520;27.448;2023-04-15T07:01:32;21.63;;;8.00;;
8574;SDS011;4325;42.520;27.448;2023-04-15T07:03:59;16.90;;;7.50;;
8574;SDS011;4325;42.520;27.448;2023-04-15T07:06:26;14.87;;;7.53;;
8574;SDS011;4325;42.520;27.448;2023-04-15T07:08:53;18.67;;;6.80;;
8574;SDS011;4325;42.520;27.448;2023-04-15T07:11:25;7.30;;;4.40;;
8574;SDS011;4325;42.520;27.448;2023-04-15T07:13:52;5.83;;;3.30;;
8574;SDS011;4325;42.520;27.448;2023-04-15T07:16:18;9.30;;;3.93;;
8574;SDS011;4325;42.520;27.448;2023-04-15T07:18:46;6.73;;;3.53;;
8574;SDS011;4325;42.520;27.448;2023-04-15T07:21:13;17.37;;;4.53;;
8574;SDS011;4325;42.520;27.448;2023-04-15T07:23:40;4.93;;;2.80;;
8574;SDS011;4325;42.520;27.448;2023-04-15T07:26:07;3.47;;;2.90;;
8574;SDS011;4325;42.520;27.448;2023-04-15T07:28:36;7.40;;;3.47;;
8574;SDS011;4325;42.520;27.448;2023-04-15T07:31:03;5.43;;;3.27;;
8574;SDS011;4325;42.520;27.448;2023-04-15T07:33:30;5.60;;;3.10;;
8574;SDS011;4325;42.520;27.448;2023-04-15T07:35:57;6.60;;;3.23;;
8574;SDS011;4325;42.520;27.448;2023-04-15T07:38:24;9.67;;;3.17;;
8574;SDS011;4325;42.520;27.448;2023-04-15T07:40:51;6.33;;;4.07;;
8574;SDS011;4325;42.520;27.448;2023-04-15T07:43:18;8.87;;;7.57;;
8574;SDS011;4325;42.520;27.448;2023-04-15T07:45:47;7.60;;;4.20;;
8574;SDS011;4325;42.520;27.448;2023-04-15T07:48:14;7.63;;;3.57;;
8574;SDS011;4325;42.520;27.448;2023-04-15T07:50:41;8.90;;;7.60;;
8574;SDS011;4325;42.520;27.448;2023-04-15T07:53:08;6.13;;;4.50;;
8574;SDS011;4325;42.520;27.448;2023-04-15T07:55:35;6.97;;;4.10;;
8574;SDS011;4325;42.520;27.448;2023-04-15T07:58:02;7.30;;;3.80;;
8574;SDS011;4325;42.520;27.448;2023-04-15T08:00:28;4.67;;;3.60;;
8574;SDS011;4325;42.520;27.448;2023-04-15T08:02:57;5.57;;;3.53;;
8574;SDS011;4325;42.520;27.448;2023-04-15T08:05:24;11.80;;;3.53;;
8574;SDS011;4325;42.520;27.448;2023-04-15T08:07:51;8.23;;;3.77;;
8574;SDS011;4325;42.520;27.448;2023-04-15T08:10:19;11.00;;;4.50;;
8574;SDS011;4325;42.520;27.448;2023-04-15T08:12:46;10.20;;;4.00;;
8574;SDS011;4325;42.520;27.448;2023-04-15T08:15:14;10.47;;;4.47;;
8574;SDS011;4325;42.520;27.448;2023-04-15T08:17:42;10.00;;;4.33;;
8574;SDS011;4325;42.520;27.448;2023-04-15T08:20:10;11.37;;;4.30;;
8574;SDS011;4325;42.520;27.448;2023-04-15T08:22:38;8.03;;;4.97;;
8574;SDS011;4325;42.520;27.448;2023-04-15T08:25:06;9.40;;;5.63;;
8574;SDS011;4325;42.520;27.448;2023-04-15T08:27:33;10.70;;;7.17;;
8574;SDS011;4325;42.520;27.448;2023-04-15T08:30:00;13.13;;;8.10;;
8574;SDS011;4325;42.520;27.448;2023-04-15T08:32:27;16.47;;;8.67;;
8574;SDS011;4325;42.520;27.448;2023-04-15T08:34:54;10.43;;;8.43;;
8574;SDS011;4325;42.520;27.448;2023-04-15T08:37:23;12.57;;;8.27;;
8574;SDS011;4325;42.520;27.448;2023-04-15T08:39:51;10.07;;;6.20;;
8574;SDS011;4325;42.520;27.448;2023-04-15T08:42:22;10.10;;;5.47;;
8574;SDS011;4325;42.520;27.448;2023-04-15T08:44:56;8.53;;;4.20;;
8574;SDS011;4325;42.520;27.448;2023-04-15T08:47:25;10.67;;;5.10;;
8574;SDS011;4325;42.520;27.448;2023-04-15T08:49:55;8.23;;;4.03;;
8574;SDS011;4325;42.520;27.448;2023-04-15T08:52:25;6.33;;;4.07;;
8574;SDS011;4325;42.520;27.448;2023-04-15T08:54:53;10.57;;;4.00;;
8574;SDS011;4325;42.520;27.448;2023-04-15T08:57:24;6.87;;;3.87;;
8574;SDS011;4325;42.520;27.448;2023-04-15T08:59:51;10.27;;;4.60;;
8574;SDS011;4325;42.520;27.448;2023-04-15T09:02:19;8.53;;;4.03;;
8574;SDS011;4325;42.520;27.448;2023-04-15T09:04:47;10.07;;;3.43;;
8574;SDS011;4325;42.520;27.448;2023-04-15T09:07:14;7.83;;;4.03;;
8574;SDS011;4325;42.520;27.448;2023-04-15T09:09:42;8.03;;;4.33;;
8574;SDS011;4325;42.520;27.448;2023-04-15T09:12:10;4.67;;;3.40;;
8574;SDS011;4325;42.520;27.448;2023-04-15T09:14:37;7.87;;;4.10;;
8574;SDS011;4325;42.520;27.448;2023-04-15T09:17:08;5.90;;;3.60;;
8574;SDS011;4325;42.520;27.448;2023-04-15T09:19:36;6.47;;;3.93;;
8574;SDS011;4325;42.520;27.448;2023-04-15T09:22:03;6.93;;;3.97;;
8574;SDS011;4325;42.520;27.448;2023-04-15T09:24:35;11.20;;;4.13;;
8574;SDS011;4325;42.520;27.448;2023-04-15T09:27:04;8.10;;;3.90;;
8574;SDS011;4325;42.520;27.448;2023-04-15T09:29:31;12.80;;;7.90;;
8574;SDS011;4325;42.520;27.448;2023-04-15T09:32:08;7.63;;;5.07;;
8574;SDS011;4325;42.520;27.448;2023-04-15T09:34:35;6.70;;;3.80;;
8574;SDS011;4325;42.520;27.448;2023-04-15T09:37:02;3.33;;;2.37;;
8574;SDS011;4325;42.520;27.448;2023-04-15T09:39:43;4.73;;;3.43;;
8574;SDS011;4325;42.520;27.448;2023-04-15T09:42:13;7.93;;;5.50;;
8574;SDS011;4325;42.520;27.448;2023-04-15T09:44:41;4.97;;;3.93;;
8574;SDS011;4325;42.520;27.448;2023-04-15T09:47:09;4.87;;;3.03;;
8574;SDS011;4325;42.520;27.448;2023-04-15T09:49:55;5.10;;;3.80;;
8574;SDS011;4325;42.520;27.448;2023-04-15T09:52:22;6.50;;;3.83;;
8574;SDS011;4325;42.520;27.448;2023-04-15T09:54:51;8.50;;;5.10;;
8574;SDS011;4325;42.520;27.448;2023-04-15T09:57:20;7.60;;;4.10;;
8574;SDS011;4325;42.520;27.448;2023-04-15T09:59:48;4.13;;;3.10;;
8574;SDS011;4325;42.520;27.448;2023-04-15T10:02:15;7.53;;;2.60;;
8574;SDS011;4325;42.520;27.448;2023-04-15T10:04:44;9.73;;;2.60;;
8574;SDS011;4325;42.520;27.448;2023-04-15T10:07:14;3.25;;;2.50;;
8574;SDS011;4325;42.520;27.448;2023-04-15T10:09:42;3.85;;;2.40;;
8574;SDS011;4325;42.520;27.448;2023-04-15T10:12:11;3.65;;;2.10;;
8574;SDS011;4325;42.520;27.448;2023-04-15T10:14:40;4.20;;;2.58;;
8574;SDS011;4325;42.520;27.448;2023-04-15T10:17:10;3.03;;;2.25;;
8574;SDS011;4325;42.520;27.448;2023-04-15T10:19:37;3.00;;;2.22;;
8574;SDS011;4325;42.520;27.448;2023-04-15T10:22:04;4.15;;;2.30;;
8574;SDS011;4325;42.520;27.448;2023-04-15T10:24:32;5.13;;;3.30;;
8574;SDS011;4325;42.520;27.448;2023-04-15T10:26:59;5.38;;;2.88;;
8574;SDS011;4325;42.520;27.448;2023-04-15T10:29:28;3.00;;;2.33;;
8574;SDS011;4325;42.520;27.448;2023-04-15T10:31:56;2.50;;;1.98;;
8574;SDS011;4325;42.520;27.448;2023-04-15T10:34:26;3.33;;;2.38;;
8574;SDS011;4325;42.520;27.448;2023-04-15T10:36:54;6.28;;;2.60;;
8574;SDS011;4325;42.520;27.448;2023-04-15T10:39:37;5.05;;;2.67;;
8574;SDS011;4325;42.520;27.448;2023-04-15T10:42:05;7.05;;;2.72;;
8574;SDS011;4325;42.520;27.448;2023-04-15T10:44:34;7.65;;;2.28;;
8574;SDS011;4325;42.520;27.448;2023-04-15T10:47:05;4.05;;;2.22;;
8574;SDS011;4325;42.520;27.448;2023-04-15T10:49:41;33.97;;;18.92;;
8574;SDS011;4325;42.520;27.448;2023-04-15T10:52:10;13.52;;;3.95;;
8574;SDS011;4325;42.520;27.448;2023-04-15T10:54:37;5.75;;;2.92;;
8574;SDS011;4325;42.520;27.448;2023-04-15T10:57:08;4.22;;;2.72;;
8574;SDS011;4325;42.520;27.448;2023-04-15T11:02:39;3.42;;;2.47;;
8574;SDS011;4325;42.520;27.448;2023-04-15T11:05:10;4.35;;;2.67;;
8574;SDS011;4325;42.520;27.448;2023-04-15T11:07:39;5.28;;;2.92;;
8574;SDS011;4325;42.520;27.448;2023-04-15T11:13:20;6.53;;;2.67;;
8574;SDS011;4325;42.520;27.448;2023-04-15T11:15:49;5.30;;;3.08;;
8574;SDS011;4325;42.520;27.448;2023-04-15T11:18:19;7.95;;;3.38;;
8574;SDS011;4325;42.520;27.448;2023-04-15T11:20:48;6.72;;;3.13;;
8574;SDS011;4325;42.520;27.448;2023-04-15T11:23:16;5.75;;;4.05;;
8574;SDS011;4325;42.520;27.448;2023-04-15T11:25:44;8.32;;;3.50;;
8574;SDS011;4325;42.520;27.448;2023-04-15T11:28:12;5.38;;;2.30;;
8574;SDS011;4325;42.520;27.448;2023-04-15T11:30:39;6.07;;;2.55;;
8574;SDS011;4325;42.520;27.448;2023-04-15T11:33:08;6.53;;;3.17;;
8574;SDS011;4325;42.520;27.448;2023-04-15T11:35:37;9.05;;;3.50;;
8574;SDS011;4325;42.520;27.448;2023-04-15T11:38:09;7.22;;;3.20;;
8574;SDS011;4325;42.520;27.448;2023-04-15T11:40:37;5.22;;;2.67;;
8574;SDS011;4325;42.520;27.448;2023-04-15T11:43:05;7.78;;;2.63;;
8574;SDS011;4325;42.520;27.448;2023-04-15T11:45:34;6.32;;;2.40;;
8574;SDS011;4325;42.520;27.448;2023-04-15T11:48:05;3.35;;;2.42;;
8574;SDS011;4325;42.520;27.448;2023-04-15T11:50:33;6.10;;;2.63;;
8574;SDS011;4325;42.520;27.448;2023-04-15T11:53:02;6.55;;;2.15;;
8574;SDS011;4325;42.520;27.448;2023-04-15T11:55:29;6.82;;;2.25;;
8574;SDS011;4325;42.520;27.448;2023-04-15T11:58:09;9.65;;;6.63;;
8574;SDS011;4325;42.520;27.448;2023-04-15T12:00:37;9.02;;;2.65;;
8574;SDS011;4325;42.520;27.448;2023-04-15T12:03:18;7.55;;;2.55;;
8574;SDS011;4325;42.520;27.448;2023-04-15T12:06:02;9.65;;;3.03;;
8574;SDS011;4325;42.520;27.448;2023-04-15T12:11:45;4.20;;;2.55;;
8574;SDS011;4325;42.520;27.448;2023-04-15T12:14:20;5.20;;;3.00;;
8574;SDS011;4325;42.520;27.448;2023-04-15T12:16:50;4.72;;;2.42;;
8574;SDS011;4325;42.520;27.448;2023-04-15T12:19:21;7.45;;;3.38;;
8574;SDS011;4325;42.520;27.448;2023-04-15T12:21:50;6.97;;;3.08;;
8574;SDS011;4325;42.520;27.448;2023-04-15T12:24:20;6.10;;;2.35;;
8574;SDS011;4325;42.520;27.448;2023-04-15T12:26:48;6.65;;;2.63;;
8574;SDS011;4325;42.520;27.448;2023-04-15T12:29:16;5.35;;;2.65;;
8574;SDS011;4325;42.520;27.448;2023-04-15T12:31:50;5.85;;;2.35;;
8574;SDS011;4325;42.520;27.448;2023-04-15T12:34:18;6.28;;;2.60;;
8574;SDS011;4325;42.520;27.448;2023-04-15T12:36:53;9.38;;;2.63;;
8574;SDS011;4325;42.520;27.448;2023-04-15T12:39:22;6.68;;;2.72;;
8574;SDS011;4325;42.520;27.448;2023-04-15T12:41:49;10.52;;;2.90;;
8574;SDS011;4325;42.520;27.448;2023-04-15T12:44:16;5.82;;;3.28;;
8574;SDS011;4325;42.520;27.448;2023-04-15T12:46:43;6.90;;;2.70;;
8574;SDS011;4325;42.520;27.448;2023-04-15T12:49:10;7.20;;;3.15;;
8574;SDS011;4325;42.520;27.448;2023-04-15T12:51:38;9.90;;;2.70;;
8574;SDS011;4325;42.520;27.448;2023-04-15T12:54:05;3.95;;;2.38;;
8574;SDS011;4325;42.520;27.448;2023-04-15T12:56:34;6.10;;;2.85;;
8574;SDS011;4325;42.520;27.448;2023-04-15T12:59:00;9.05;;;2.55;;
8574;SDS011;4325;42.520;27.448;2023-04-15T13:01:27;8.10;;;2.72;;
8574;SDS011;4325;42.520;27.448;2023-04-15T13:03:54;9.57;;;2.88;;
8574;SDS011;4325;42.520;27.448;2023-04-15T13:06:21;8.60;;;3.10;;
8574;SDS011;4325;42.520;27.448;2023-04-15T13:08:49;7.22;;;2.90;;
8574;SDS011;4325;42.520;27.448;2023-04-15T13:11:15;5.07;;;2.60;;
8574;SDS011;4325;42.520;27.448;2023-04-15T13:13:45;7.97;;;2.35;;
8574;SDS011;4325;42.520;27.448;2023-04-15T13:16:12;7.93;;;2.97;;
8574;SDS011;4325;42.520;27.448;2023-04-15T13:18:39;9.40;;;3.53;;
8574;SDS011;4325;42.520;27.448;2023-04-15T13:21:07;9.73;;;2.80;;
8574;SDS011;4325;42.520;27.448;2023-04-15T13:23:35;7.93;;;2.80;;
8574;SDS011;4325;42.520;27.448;2023-04-15T13:26:01;4.95;;;2.55;;
8574;SDS011;4325;42.520;27.448;2023-04-15T13:28:28;5.50;;;3.00;;
8574;SDS011;4325;42.520;27.448;2023-04-15T13:30:57;4.82;;;2.42;;
8574;SDS011;4325;42.520;27.448;2023-04-15T13:33:24;6.55;;;2.75;;
8574;SDS011;4325;42.520;27.448;2023-04-15T13:35:51;8.82;;;2.65;;
8574;SDS011;4325;42.520;27.448;2023-04-15T13:38:18;8.20;;;2.60;;
8574;SDS011;4325;42.520;27.448;2023-04-15T13:40:45;7.72;;;3.20;;
8574;SDS011;4325;42.520;27.448;2023-04-15T13:43:12;8.25;;;3.25;;
8574;SDS011;4325;42.520;27.448;2023-04-15T13:45:39;7.30;;;3.30;;
8574;SDS011;4325;42.520;27.448;2023-04-15T13:48:07;5.85;;;2.80;;
8574;SDS011;4325;42.520;27.448;2023-04-15T13:50:34;6.65;;;3.30;;
8574;SDS011;4325;42.520;27.448;2023-04-15T13:53:01;6.45;;;3.45;;
8574;SDS011;4325;42.520;27.448;2023-04-15T13:55:28;4.97;;;2.72;;
8574;SDS011;4325;42.520;27.448;2023-04-15T13:57:55;5.97;;;3.00;;
8574;SDS011;4325;42.520;27.448;2023-04-15T14:00:22;4.37;;;2.73;;
8574;SDS011;4325;42.520;27.448;2023-04-15T14:02:49;6.70;;;2.93;;
8574;SDS011;4325;42.520;27.448;2023-04-15T14:05:17;4.17;;;2.80;;
8574;SDS011;4325;42.520;27.448;2023-04-15T14:07:44;6.03;;;2.80;;
8574;SDS011;4325;42.520;27.448;2023-04-15T14:10:11;5.07;;;2.93;;
8574;SDS011;4325;42.520;27.448;2023-04-15T14:12:38;5.63;;;2.77;;
8574;SDS011;4325;42.520;27.448;2023-04-15T14:15:05;6.67;;;2.97;;
8574;SDS011;4325;42.520;27.448;2023-04-15T14:17:32;6.87;;;3.30;;
8574;SDS011;4325;42.520;27.448;2023-04-15T14:19:59;7.23;;;2.73;;
8574;SDS011;4325;42.520;27.448;2023-04-15T14:22:27;7.27;;;3.33;;
8574;SDS011;4325;42.520;27.448;2023-04-15T14:24:56;5.43;;;2.90;;
8574;SDS011;4325;42.520;27.448;2023-04-15T14:27:22;8.53;;;3.00;;
8574;SDS011;4325;42.520;27.448;2023-04-15T14:29:49;7.27;;;2.83;;
8574;SDS011;4325;42.520;27.448;2023-04-15T14:32:17;7.57;;;3.33;;
8574;SDS011;4325;42.520;27.448;2023-04-15T14:34:44;6.30;;;2.57;;
8574;SDS011;4325;42.520;27.448;2023-04-15T14:37:11;2.93;;;2.37;;
8574;SDS011;4325;42.520;27.448;2023-04-15T14:39:39;7.13;;;2.50;;
8574;SDS011;4325;42.520;27.448;2023-04-15T14:42:06;5.83;;;2.87;;
8574;SDS011;4325;42.520;27.448;2023-04-15T14:44:33;4.07;;;2.73;;
8574;SDS011;4325;42.520;27.448;2023-04-15T14:47:00;5.33;;;2.60;;
8574;SDS011;4325;42.520;27.448;2023-04-15T14:49:27;4.63;;;2.43;;
8574;SDS011;4325;42.520;27.448;2023-04-15T14:51:54;4.73;;;2.73;;
8574;SDS011;4325;42.520;27.448;2023-04-15T14:54:21;7.57;;;2.60;;
8574;SDS011;4325;42.520;27.448;2023-04-15T14:56:49;3.87;;;2.60;;
8574;SDS011;4325;42.520;27.448;2023-04-15T14:59:16;6.00;;;2.43;;
8574;SDS011;4325;42.520;27.448;2023-04-15T15:01:43;7.67;;;2.90;;
8574;SDS011;4325;42.520;27.448;2023-04-15T15:04:10;5.10;;;2.80;;
8574;SDS011;4325;42.520;27.448;2023-04-15T15:06:37;3.97;;;2.30;;